sensor_id;sensor_type;location;lat;lon;timestamp;pressure;altitude;pressure_sealevel;temperature;humidity
75298;BME280;63896;45.990;18.688;2022-10-13T00:00:50;101517.00;;;10.31;90.43
75298;BME280;63896;45.990;18.688;2022-10-13T00:03:53;101526.06;;;10.37;89.34
75298;BME280;63896;45.990;18.688;2022-10-13T00:06:57;101523.78;;;10.34;89.26
75298;BME280;63896;45.990;18.688;2022-10-13T00:10:01;101525.59;;;10.33;89.24
75298;BME280;63896;45.990;18.688;2022-10-13T00:13:04;101527.44;;;10.33;89.39
75298;BME280;63896;45.990;18.688;2022-10-13T00:16:08;101526.41;;;10.48;88.38
75298;BME280;63896;45.990;18.688;2022-10-13T00:19:12;101525.94;;;10.45;88.07
75298;BME280;63896;45.990;18.688;2022-10-13T00:22:16;101525.66;;;10.40;88.67
75298;BME280;63896;45.990;18.688;2022-10-13T00:25:20;101519.19;;;10.42;88.18
75298;BME280;63896;45.990;18.688;2022-10-13T00:28:23;101520.00;;;10.43;88.51
75298;BME280;63896;45.990;18.688;2022-10-13T00:31:28;101519.81;;;10.44;88.07
75298;BME280;63896;45.990;18.688;2022-10-13T00:34:32;101518.88;;;10.52;87.31
75298;BME280;63896;45.990;18.688;2022-10-13T00:37:34;101520.91;;;10.50;87.46
75298;BME280;63896;45.990;18.688;2022-10-13T00:40:50;101514.13;;;10.47;87.09
75298;BME280;63896;45.990;18.688;2022-10-13T00:43:54;101513.13;;;10.48;87.55
75298;BME280;63896;45.990;18.688;2022-10-13T00:46:58;101509.97;;;10.38;87.68
75298;BME280;63896;45.990;18.688;2022-10-13T00:50:02;101511.78;;;10.38;87.49
75298;BME280;63896;45.990;18.688;2022-10-13T00:53:07;101514.34;;;10.31;87.59
75298;BME280;63896;45.990;18.688;2022-10-13T00:56:13;101502.81;;;10.24;87.69
75298;BME280;63896;45.990;18.688;2022-10-13T00:59:22;101500.72;;;10.20;87.90
75298;BME280;63896;45.990;18.688;2022-10-13T01:02:32;101507.69;;;10.21;88.06
75298;BME280;63896;45.990;18.688;2022-10-13T01:05:38;101506.50;;;10.23;87.94
75298;BME280;63896;45.990;18.688;2022-10-13T01:08:41;101501.44;;;10.14;87.73
75298;BME280;63896;45.990;18.688;2022-10-13T01:12:17;101507.72;;;10.13;87.87
75298;BME280;63896;45.990;18.688;2022-10-13T01:15:58;101510.13;;;10.08;88.08
75298;BME280;63896;45.990;18.688;2022-10-13T01:25:38;101502.91;;;10.01;88.28
75298;BME280;63896;45.990;18.688;2022-10-13T01:35:27;101505.56;;;9.87;88.57
75298;BME280;63896;45.990;18.688;2022-10-13T01:38:39;101503.34;;;9.90;89.12
75298;BME280;63896;45.990;18.688;2022-10-13T01:41:50;101495.13;;;9.85;89.40
75298;BME280;63896;45.990;18.688;2022-10-13T01:44:59;101496.47;;;9.81;89.49
75298;BME280;63896;45.990;18.688;2022-10-13T01:48:04;101488.91;;;9.78;89.29
75298;BME280;63896;45.990;18.688;2022-10-13T01:51:17;101485.63;;;9.76;89.43
75298;BME280;63896;45.990;18.688;2022-10-13T01:54:21;101486.25;;;9.78;89.39
75298;BME280;63896;45.990;18.688;2022-10-13T01:57:35;101487.25;;;9.77;89.18
75298;BME280;63896;45.990;18.688;2022-10-13T02:00:43;101485.72;;;9.83;89.29
75298;BME280;63896;45.990;18.688;2022-10-13T02:07:39;101473.81;;;9.79;89.41
75298;BME280;63896;45.990;18.688;2022-10-13T02:10:51;101473.19;;;9.77;89.64
75298;BME280;63896;45.990;18.688;2022-10-13T02:14:02;101469.06;;;9.74;89.64
75298;BME280;63896;45.990;18.688;2022-10-13T02:17:09;101466.16;;;9.69;89.19
75298;BME280;63896;45.990;18.688;2022-10-13T02:20:15;101464.31;;;9.70;89.40
75298;BME280;63896;45.990;18.688;2022-10-13T02:23:20;101458.66;;;9.73;89.39
75298;BME280;63896;45.990;18.688;2022-10-13T02:26:24;101462.47;;;9.70;89.53
75298;BME280;63896;45.990;18.688;2022-10-13T02:29:50;101464.69;;;9.67;89.82
75298;BME280;63896;45.990;18.688;2022-10-13T02:32:55;101461.94;;;9.60;89.69
75298;BME280;63896;45.990;18.688;2022-10-13T02:35:58;101460.47;;;9.57;89.62
75298;BME280;63896;45.990;18.688;2022-10-13T02:39:01;101470.13;;;9.50;90.33
75298;BME280;63896;45.990;18.688;2022-10-13T02:42:04;101456.34;;;9.40;90.39
75298;BME280;63896;45.990;18.688;2022-10-13T02:45:08;101461.28;;;9.43;90.27
75298;BME280;63896;45.990;18.688;2022-10-13T02:48:11;101467.31;;;9.37;90.48
75298;BME280;63896;45.990;18.688;2022-10-13T02:51:14;101453.03;;;9.38;90.33
75298;BME280;63896;45.990;18.688;2022-10-13T02:54:17;101458.25;;;9.46;90.28
75298;BME280;63896;45.990;18.688;2022-10-13T02:57:19;101457.00;;;9.57;88.96
75298;BME280;63896;45.990;18.688;2022-10-13T03:00:26;101455.06;;;9.51;88.87
75298;BME280;63896;45.990;18.688;2022-10-13T03:03:29;101457.47;;;9.46;89.37
75298;BME280;63896;45.990;18.688;2022-10-13T03:06:32;101464.22;;;9.48;89.13
75298;BME280;63896;45.990;18.688;2022-10-13T03:09:35;101460.09;;;9.46;88.76
75298;BME280;63896;45.990;18.688;2022-10-13T03:12:38;101469.31;;;9.50;88.52
75298;BME280;63896;45.990;18.688;2022-10-13T03:15:41;101470.69;;;9.46;88.96
75298;BME280;63896;45.990;18.688;2022-10-13T03:18:44;101468.84;;;9.46;88.60
75298;BME280;63896;45.990;18.688;2022-10-13T03:21:47;101465.50;;;9.52;88.36
75298;BME280;63896;45.990;18.688;2022-10-13T03:24:49;101470.78;;;9.52;88.04
75298;BME280;63896;45.990;18.688;2022-10-13T03:27:54;101477.09;;;9.51;88.14
75298;BME280;63896;45.990;18.688;2022-10-13T03:31:06;101472.97;;;9.49;88.15
75298;BME280;63896;45.990;18.688;2022-10-13T03:34:10;101471.69;;;9.45;87.98
75298;BME280;63896;45.990;18.688;2022-10-13T03:37:14;101476.00;;;9.46;88.13
75298;BME280;63896;45.990;18.688;2022-10-13T03:40:17;101472.69;;;9.44;88.15
75298;BME280;63896;45.990;18.688;2022-10-13T03:43:21;101470.88;;;9.44;88.13
75298;BME280;63896;45.990;18.688;2022-10-13T03:46:27;101471.94;;;9.35;88.38
75298;BME280;63896;45.990;18.688;2022-10-13T03:49:32;101475.78;;;9.33;88.35
75298;BME280;63896;45.990;18.688;2022-10-13T03:52:35;101471.47;;;9.32;88.26
75298;BME280;63896;45.990;18.688;2022-10-13T03:55:37;101476.50;;;9.27;88.66
75298;BME280;63896;45.990;18.688;2022-10-13T03:58:40;101471.59;;;9.16;88.53
75298;BME280;63896;45.990;18.688;2022-10-13T04:01:44;101471.28;;;9.19;89.45
75298;BME280;63896;45.990;18.688;2022-10-13T04:04:47;101469.84;;;9.08;89.84
75298;BME280;63896;45.990;18.688;2022-10-13T04:07:49;101464.22;;;9.11;89.80
75298;BME280;63896;45.990;18.688;2022-10-13T04:11:04;101458.28;;;9.09;89.76
75298;BME280;63896;45.990;18.688;2022-10-13T04:14:07;101457.75;;;9.14;89.96
75298;BME280;63896;45.990;18.688;2022-10-13T04:17:10;101451.63;;;9.13;89.40
75298;BME280;63896;45.990;18.688;2022-10-13T04:20:13;101449.34;;;9.10;90.15
75298;BME280;63896;45.990;18.688;2022-10-13T04:23:16;101447.97;;;9.14;90.11
75298;BME280;63896;45.990;18.688;2022-10-13T04:26:24;101460.31;;;9.22;90.06
75298;BME280;63896;45.990;18.688;2022-10-13T04:29:27;101447.44;;;9.19;89.94
75298;BME280;63896;45.990;18.688;2022-10-13T04:32:31;101455.03;;;9.22;89.78
75298;BME280;63896;45.990;18.688;2022-10-13T04:35:40;101457.06;;;9.12;89.97
75298;BME280;63896;45.990;18.688;2022-10-13T04:38:43;101453.44;;;9.13;89.86
75298;BME280;63896;45.990;18.688;2022-10-13T04:41:46;101452.81;;;9.11;89.93
75298;BME280;63896;45.990;18.688;2022-10-13T04:44:49;101458.09;;;9.11;90.19
75298;BME280;63896;45.990;18.688;2022-10-13T04:47:55;101453.28;;;9.14;90.01
75298;BME280;63896;45.990;18.688;2022-10-13T04:51:07;101454.19;;;9.21;89.97
75298;BME280;63896;45.990;18.688;2022-10-13T04:54:10;101457.41;;;9.31;89.33
75298;BME280;63896;45.990;18.688;2022-10-13T04:57:13;101452.94;;;9.46;88.92
75298;BME280;63896;45.990;18.688;2022-10-13T05:00:16;101447.50;;;9.63;87.87
75298;BME280;63896;45.990;18.688;2022-10-13T05:03:19;101452.25;;;9.67;87.51
75298;BME280;63896;45.990;18.688;2022-10-13T05:06:24;101462.13;;;9.73;87.14
75298;BME280;63896;45.990;18.688;2022-10-13T05:09:29;101453.63;;;9.78;87.25
75298;BME280;63896;45.990;18.688;2022-10-13T05:12:32;101467.00;;;9.84;86.62
75298;BME280;63896;45.990;18.688;2022-10-13T05:15:37;101461.31;;;9.87;86.45
75298;BME280;63896;45.990;18.688;2022-10-13T05:18:40;101462.22;;;9.94;86.07
75298;BME280;63896;45.990;18.688;2022-10-13T05:21:45;101461.31;;;10.02;86.11
75298;BME280;63896;45.990;18.688;2022-10-13T05:24:49;101466.16;;;9.98;86.59
75298;BME280;63896;45.990;18.688;2022-10-13T05:27:52;101464.50;;;9.97;86.66
75298;BME280;63896;45.990;18.688;2022-10-13T05:30:54;101476.84;;;10.05;86.24
75298;BME280;63896;45.990;18.688;2022-10-13T05:33:58;101466.34;;;10.12;85.95
75298;BME280;63896;45.990;18.688;2022-10-13T05:37:02;101466.13;;;10.13;85.66
75298;BME280;63896;45.990;18.688;2022-10-13T05:40:19;101458.38;;;10.12;85.61
75298;BME280;63896;45.990;18.688;2022-10-13T05:43:34;101464.78;;;10.17;85.60
75298;BME280;63896;45.990;18.688;2022-10-13T05:46:38;101473.47;;;10.26;85.00
75298;BME280;63896;45.990;18.688;2022-10-13T05:49:51;101472.72;;;10.32;84.38
75298;BME280;63896;45.990;18.688;2022-10-13T05:52:55;101476.09;;;10.40;84.47
75298;BME280;63896;45.990;18.688;2022-10-13T05:56:04;101481.41;;;10.40;84.63
75298;BME280;63896;45.990;18.688;2022-10-13T05:59:09;101492.91;;;10.47;83.86
75298;BME280;63896;45.990;18.688;2022-10-13T06:02:21;101493.78;;;10.69;83.74
75298;BME280;63896;45.990;18.688;2022-10-13T06:05:28;101498.84;;;10.85;83.13
75298;BME280;63896;45.990;18.688;2022-10-13T06:08:38;101501.25;;;11.02;82.05
75298;BME280;63896;45.990;18.688;2022-10-13T06:11:43;101504.97;;;11.28;81.05
75298;BME280;63896;45.990;18.688;2022-10-13T06:14:46;101501.00;;;11.39;80.40
75298;BME280;63896;45.990;18.688;2022-10-13T06:17:50;101508.22;;;11.52;80.61
75298;BME280;63896;45.990;18.688;2022-10-13T06:20:53;101506.06;;;11.62;79.77
75298;BME280;63896;45.990;18.688;2022-10-13T06:23:56;101505.00;;;11.56;79.75
75298;BME280;63896;45.990;18.688;2022-10-13T06:26:59;101506.06;;;11.62;79.50
75298;BME280;63896;45.990;18.688;2022-10-13T06:30:06;101505.94;;;11.70;79.39
75298;BME280;63896;45.990;18.688;2022-10-13T06:33:11;101510.16;;;11.85;78.38
75298;BME280;63896;45.990;18.688;2022-10-13T06:36:14;101513.00;;;12.18;77.88
75298;BME280;63896;45.990;18.688;2022-10-13T06:39:20;101506.88;;;12.78;75.73
75298;BME280;63896;45.990;18.688;2022-10-13T06:42:23;101513.09;;;13.91;71.39
75298;BME280;63896;45.990;18.688;2022-10-13T06:45:42;101510.38;;;14.10;69.26
75298;BME280;63896;45.990;18.688;2022-10-13T06:48:51;101517.63;;;13.90;70.59
75298;BME280;63896;45.990;18.688;2022-10-13T06:52:01;101515.84;;;14.42;68.86
75298;BME280;63896;45.990;18.688;2022-10-13T06:55:04;101508.00;;;14.91;66.63
75298;BME280;63896;45.990;18.688;2022-10-13T06:58:11;101512.59;;;15.40;64.97
75298;BME280;63896;45.990;18.688;2022-10-13T07:01:14;101516.13;;;15.84;63.07
75298;BME280;63896;45.990;18.688;2022-10-13T07:04:17;101509.03;;;16.14;61.82
75298;BME280;63896;45.990;18.688;2022-10-13T07:07:20;101511.31;;;16.47;60.45
75298;BME280;63896;45.990;18.688;2022-10-13T07:10:28;101511.47;;;15.79;61.98
75298;BME280;63896;45.990;18.688;2022-10-13T07:13:31;101504.31;;;15.48;62.66
75298;BME280;63896;45.990;18.688;2022-10-13T07:16:39;101501.31;;;14.75;65.24
75298;BME280;63896;45.990;18.688;2022-10-13T07:19:42;101494.94;;;14.76;65.81
75298;BME280;63896;45.990;18.688;2022-10-13T07:22:53;101500.59;;;16.10;61.06
75298;BME280;63896;45.990;18.688;2022-10-13T07:25:59;101494.25;;;18.00;54.20
75298;BME280;63896;45.990;18.688;2022-10-13T07:29:03;101496.94;;;18.64;53.08
75298;BME280;63896;45.990;18.688;2022-10-13T07:32:06;101492.44;;;18.52;51.63
75298;BME280;63896;45.990;18.688;2022-10-13T07:35:10;101493.81;;;19.62;49.62
75298;BME280;63896;45.990;18.688;2022-10-13T07:38:30;101489.72;;;19.97;48.13
75298;BME280;63896;45.990;18.688;2022-10-13T07:41:33;101487.81;;;21.12;45.70
75298;BME280;63896;45.990;18.688;2022-10-13T07:44:42;101484.72;;;21.03;44.32
75298;BME280;63896;45.990;18.688;2022-10-13T07:47:45;101482.66;;;21.42;43.04
75298;BME280;63896;45.990;18.688;2022-10-13T07:50:49;101484.72;;;19.34;47.96
75298;BME280;63896;45.990;18.688;2022-10-13T07:53:52;101486.63;;;19.89;47.30
75298;BME280;63896;45.990;18.688;2022-10-13T07:56:59;101479.66;;;22.48;40.71
75298;BME280;63896;45.990;18.688;2022-10-13T08:00:03;101486.97;;;22.42;40.61
75298;BME280;63896;45.990;18.688;2022-10-13T08:03:14;101477.63;;;23.00;40.32
75298;BME280;63896;45.990;18.688;2022-10-13T08:06:20;101476.84;;;23.55;38.03
75298;BME280;63896;45.990;18.688;2022-10-13T08:09:25;101476.56;;;24.80;36.01
75298;BME280;63896;45.990;18.688;2022-10-13T08:12:29;101475.19;;;23.59;38.28
75298;BME280;63896;45.990;18.688;2022-10-13T08:15:33;101467.31;;;23.68;38.65
75298;BME280;63896;45.990;18.688;2022-10-13T08:18:36;101463.97;;;23.91;38.44
75298;BME280;63896;45.990;18.688;2022-10-13T08:21:42;101453.53;;;23.44;39.47
75298;BME280;63896;45.990;18.688;2022-10-13T08:25:04;101451.44;;;24.15;38.35
75298;BME280;63896;45.990;18.688;2022-10-13T08:28:18;101454.97;;;25.04;37.02
75298;BME280;63896;45.990;18.688;2022-10-13T08:31:25;101444.28;;;25.41;36.01
75298;BME280;63896;45.990;18.688;2022-10-13T08:34:32;101443.69;;;26.21;34.83
75298;BME280;63896;45.990;18.688;2022-10-13T08:37:44;101447.72;;;24.50;37.42
75298;BME280;63896;45.990;18.688;2022-10-13T08:40:56;101446.72;;;26.75;33.46
75298;BME280;63896;45.990;18.688;2022-10-13T08:44:05;101433.78;;;26.48;33.85
75298;BME280;63896;45.990;18.688;2022-10-13T08:48:38;101439.47;;;28.04;31.30
75298;BME280;63896;45.990;18.688;2022-10-13T08:51:21;101443.25;;;27.53;32.13
75298;BME280;63896;45.990;18.688;2022-10-13T08:54:24;101446.38;;;25.78;35.10
75298;BME280;63896;45.990;18.688;2022-10-13T08:57:28;101440.69;;;26.60;34.16
75298;BME280;63896;45.990;18.688;2022-10-13T09:00:30;101437.59;;;28.54;30.86
75298;BME280;63896;45.990;18.688;2022-10-13T09:07:04;101432.22;;;26.80;33.95
75298;BME280;63896;45.990;18.688;2022-10-13T09:10:12;101437.59;;;27.90;32.23
75298;BME280;63896;45.990;18.688;2022-10-13T09:13:19;101428.06;;;28.51;31.56
75298;BME280;63896;45.990;18.688;2022-10-13T09:16:37;101424.84;;;28.49;31.83
75298;BME280;63896;45.990;18.688;2022-10-13T09:19:44;101424.31;;;28.25;32.22
75298;BME280;63896;45.990;18.688;2022-10-13T09:23:28;101429.41;;;28.18;31.96
75298;BME280;63896;45.990;18.688;2022-10-13T09:26:29;101422.19;;;28.58;31.38
75298;BME280;63896;45.990;18.688;2022-10-13T09:29:38;101419.31;;;29.60;30.17
75298;BME280;63896;45.990;18.688;2022-10-13T09:32:43;101430.00;;;25.59;36.48
75298;BME280;63896;45.990;18.688;2022-10-13T09:36:07;101435.63;;;26.11;36.05
75298;BME280;63896;45.990;18.688;2022-10-13T09:39:14;101423.63;;;26.35;35.07
75298;BME280;63896;45.990;18.688;2022-10-13T09:42:25;101423.84;;;26.20;35.23
75298;BME280;63896;45.990;18.688;2022-10-13T09:45:31;101424.75;;;27.64;32.72
75298;BME280;63896;45.990;18.688;2022-10-13T09:48:36;101416.56;;;30.00;28.68
75298;BME280;63896;45.990;18.688;2022-10-13T09:51:41;101415.88;;;29.24;30.06
75298;BME280;63896;45.990;18.688;2022-10-13T09:54:58;101408.84;;;30.27;28.59
75298;BME280;63896;45.990;18.688;2022-10-13T09:58:11;101408.31;;;29.21;29.90
75298;BME280;63896;45.990;18.688;2022-10-13T10:01:25;101395.63;;;29.56;29.48
75298;BME280;63896;45.990;18.688;2022-10-13T10:04:36;101392.06;;;30.89;27.94
75298;BME280;63896;45.990;18.688;2022-10-13T10:07:40;101394.31;;;30.10;28.69
75298;BME280;63896;45.990;18.688;2022-10-13T10:10:43;101393.72;;;30.56;27.88
75298;BME280;63896;45.990;18.688;2022-10-13T10:13:46;101385.25;;;30.95;27.51
75298;BME280;63896;45.990;18.688;2022-10-13T10:20:43;101378.56;;;32.39;24.70
75298;BME280;63896;45.990;18.688;2022-10-13T10:24:01;101376.91;;;30.74;26.77
75298;BME280;63896;45.990;18.688;2022-10-13T10:27:16;101370.84;;;32.86;24.32
75298;BME280;63896;45.990;18.688;2022-10-13T10:30:21;101362.84;;;29.81;28.41
75298;BME280;63896;45.990;18.688;2022-10-13T10:33:38;101360.19;;;30.24;27.53
75298;BME280;63896;45.990;18.688;2022-10-13T10:36:52;101347.16;;;30.39;27.10
75298;BME280;63896;45.990;18.688;2022-10-13T10:40:13;101349.06;;;29.95;28.58
75298;BME280;63896;45.990;18.688;2022-10-13T10:43:38;101351.94;;;31.90;25.30
75298;BME280;63896;45.990;18.688;2022-10-13T10:46:48;101341.84;;;32.23;25.02
75298;BME280;63896;45.990;18.688;2022-10-13T10:50:00;101347.97;;;31.79;24.99
75298;BME280;63896;45.990;18.688;2022-10-13T10:56:33;101333.31;;;31.45;25.70
75298;BME280;63896;45.990;18.688;2022-10-13T11:04:48;101321.94;;;32.59;24.53
75298;BME280;63896;45.990;18.688;2022-10-13T11:14:38;101293.16;;;32.89;23.62
75298;BME280;63896;45.990;18.688;2022-10-13T11:17:41;101293.03;;;33.98;22.42
75298;BME280;63896;45.990;18.688;2022-10-13T11:20:56;101287.34;;;33.39;23.31
75298;BME280;63896;45.990;18.688;2022-10-13T11:23:59;101280.97;;;30.11;27.33
75298;BME280;63896;45.990;18.688;2022-10-13T11:30:43;101280.06;;;29.33;28.35
75298;BME280;63896;45.990;18.688;2022-10-13T11:33:54;101272.72;;;29.68;28.06
75298;BME280;63896;45.990;18.688;2022-10-13T11:36:59;101266.44;;;31.00;25.59
75298;BME280;63896;45.990;18.688;2022-10-13T11:40:23;101261.47;;;28.73;29.72
75298;BME280;63896;45.990;18.688;2022-10-13T11:43:46;101265.31;;;31.01;26.14
75298;BME280;63896;45.990;18.688;2022-10-13T11:50:28;101248.44;;;28.70;29.71
75298;BME280;63896;45.990;18.688;2022-10-13T11:56:52;101247.91;;;30.33;26.74
75298;BME280;63896;45.990;18.688;2022-10-13T11:59:55;101240.50;;;30.34;27.10
75298;BME280;63896;45.990;18.688;2022-10-13T12:03:03;101238.88;;;30.41;26.66
75298;BME280;63896;45.990;18.688;2022-10-13T12:09:24;101237.53;;;31.32;25.60
75298;BME280;63896;45.990;18.688;2022-10-13T12:12:28;101232.41;;;31.72;25.22
75298;BME280;63896;45.990;18.688;2022-10-13T12:15:34;101235.63;;;30.56;26.71
75298;BME280;63896;45.990;18.688;2022-10-13T12:18:39;101230.97;;;31.24;25.96
75298;BME280;63896;45.990;18.688;2022-10-13T12:21:54;101230.84;;;29.59;27.31
75298;BME280;63896;45.990;18.688;2022-10-13T12:24:59;101216.69;;;28.83;29.23
75298;BME280;63896;45.990;18.688;2022-10-13T12:28:02;101224.28;;;29.43;27.49
75298;BME280;63896;45.990;18.688;2022-10-13T12:31:17;101221.06;;;29.01;28.36
75298;BME280;63896;45.990;18.688;2022-10-13T12:37:32;101216.06;;;29.94;26.43
75298;BME280;63896;45.990;18.688;2022-10-13T12:40:38;101206.16;;;30.36;25.86
75298;BME280;63896;45.990;18.688;2022-10-13T12:43:41;101216.06;;;29.43;28.05
75298;BME280;63896;45.990;18.688;2022-10-13T12:46:49;101215.72;;;30.77;26.06
75298;BME280;63896;45.990;18.688;2022-10-13T12:53:46;101204.88;;;28.65;28.69
75298;BME280;63896;45.990;18.688;2022-10-13T12:56:59;101195.06;;;30.33;26.07
75298;BME280;63896;45.990;18.688;2022-10-13T13:00:26;101192.97;;;28.30;28.77
75298;BME280;63896;45.990;18.688;2022-10-13T13:03:30;101188.84;;;29.98;26.98
75298;BME280;63896;45.990;18.688;2022-10-13T13:06:35;101181.78;;;29.79;27.41
75298;BME280;63896;45.990;18.688;2022-10-13T13:09:38;101179.72;;;30.49;26.11
75298;BME280;63896;45.990;18.688;2022-10-13T13:12:46;101182.44;;;29.85;27.90
75298;BME280;63896;45.990;18.688;2022-10-13T13:15:49;101182.00;;;30.47;25.91
75298;BME280;63896;45.990;18.688;2022-10-13T13:18:52;101181.75;;;26.75;32.67
75298;BME280;63896;45.990;18.688;2022-10-13T13:21:55;101178.19;;;27.29;31.98
75298;BME280;63896;45.990;18.688;2022-10-13T13:24:58;101179.38;;;26.27;33.39
75298;BME280;63896;45.990;18.688;2022-10-13T13:28:03;101179.34;;;27.64;31.48
75298;BME280;63896;45.990;18.688;2022-10-13T13:31:10;101163.69;;;28.00;30.32
75298;BME280;63896;45.990;18.688;2022-10-13T13:34:13;101164.06;;;26.31;33.37
75298;BME280;63896;45.990;18.688;2022-10-13T13:37:24;101158.16;;;26.97;32.31
75298;BME280;63896;45.990;18.688;2022-10-13T13:40:29;101158.88;;;25.46;34.80
75298;BME280;63896;45.990;18.688;2022-10-13T13:43:36;101163.06;;;25.76;34.18
75298;BME280;63896;45.990;18.688;2022-10-13T13:46:39;101157.31;;;25.64;35.02
75298;BME280;63896;45.990;18.688;2022-10-13T13:49:43;101157.44;;;26.05;34.33
75298;BME280;63896;45.990;18.688;2022-10-13T13:52:46;101158.38;;;25.44;35.53
75298;BME280;63896;45.990;18.688;2022-10-13T13:55:49;101157.94;;;26.67;33.46
75298;BME280;63896;45.990;18.688;2022-10-13T13:58:53;101152.56;;;27.16;31.77
75298;BME280;63896;45.990;18.688;2022-10-13T14:01:56;101147.88;;;25.75;34.33
75298;BME280;63896;45.990;18.688;2022-10-13T14:05:00;101159.19;;;26.61;33.47
75298;BME280;63896;45.990;18.688;2022-10-13T14:08:03;101152.78;;;26.38;34.01
75298;BME280;63896;45.990;18.688;2022-10-13T14:11:07;101148.09;;;25.79;34.33
75298;BME280;63896;45.990;18.688;2022-10-13T14:14:10;101147.53;;;26.28;33.70
75298;BME280;63896;45.990;18.688;2022-10-13T14:17:12;101150.28;;;26.09;34.30
75298;BME280;63896;45.990;18.688;2022-10-13T14:20:15;101139.50;;;25.34;35.55
75298;BME280;63896;45.990;18.688;2022-10-13T14:23:19;101146.06;;;25.33;35.85
75298;BME280;63896;45.990;18.688;2022-10-13T14:26:21;101142.09;;;25.44;35.96
75298;BME280;63896;45.990;18.688;2022-10-13T14:29:25;101136.81;;;25.53;34.97
75298;BME280;63896;45.990;18.688;2022-10-13T14:32:28;101144.00;;;25.25;35.93
75298;BME280;63896;45.990;18.688;2022-10-13T14:35:31;101135.22;;;23.42;39.84
75298;BME280;63896;45.990;18.688;2022-10-13T14:38:33;101128.22;;;23.36;40.08
75298;BME280;63896;45.990;18.688;2022-10-13T14:41:36;101128.19;;;23.80;39.15
75298;BME280;63896;45.990;18.688;2022-10-13T14:44:40;101132.03;;;22.81;41.25
75298;BME280;63896;45.990;18.688;2022-10-13T14:47:43;101134.34;;;22.18;43.30
75298;BME280;63896;45.990;18.688;2022-10-13T14:50:46;101129.50;;;21.95;44.01
75298;BME280;63896;45.990;18.688;2022-10-13T14:53:49;101133.25;;;21.53;45.15
75298;BME280;63896;45.990;18.688;2022-10-13T14:56:52;101128.06;;;21.21;45.66
75298;BME280;63896;45.990;18.688;2022-10-13T14:59:55;101130.41;;;21.03;46.54
75298;BME280;63896;45.990;18.688;2022-10-13T15:03:04;101134.63;;;20.73;47.30
75298;BME280;63896;45.990;18.688;2022-10-13T15:06:14;101125.81;;;20.41;48.19
75298;BME280;63896;45.990;18.688;2022-10-13T15:09:17;101125.03;;;20.46;48.38
75298;BME280;63896;45.990;18.688;2022-10-13T15:12:20;101129.75;;;20.28;49.03
75298;BME280;63896;45.990;18.688;2022-10-13T15:15:23;101132.91;;;20.20;49.42
75298;BME280;63896;45.990;18.688;2022-10-13T15:18:29;101127.13;;;20.02;49.90
75298;BME280;63896;45.990;18.688;2022-10-13T15:21:32;101125.66;;;19.84;50.76
75298;BME280;63896;45.990;18.688;2022-10-13T15:24:35;101126.38;;;19.74;50.53
75298;BME280;63896;45.990;18.688;2022-10-13T15:27:38;101125.63;;;19.52;50.88
75298;BME280;63896;45.990;18.688;2022-10-13T15:30:44;101128.91;;;19.32;52.64
75298;BME280;63896;45.990;18.688;2022-10-13T15:33:50;101132.56;;;19.21;53.30
75298;BME280;63896;45.990;18.688;2022-10-13T15:36:55;101129.94;;;19.04;52.88
75298;BME280;63896;45.990;18.688;2022-10-13T15:39:57;101121.69;;;18.89;52.97
75298;BME280;63896;45.990;18.688;2022-10-13T15:43:00;101120.69;;;18.74;55.26
75298;BME280;63896;45.990;18.688;2022-10-13T15:46:10;101127.22;;;18.56;55.22
75298;BME280;63896;45.990;18.688;2022-10-13T15:49:13;101139.28;;;18.37;56.84
75298;BME280;63896;45.990;18.688;2022-10-13T15:52:16;101132.22;;;18.14;58.83
75298;BME280;63896;45.990;18.688;2022-10-13T15:55:20;101133.53;;;17.95;58.91
75298;BME280;63896;45.990;18.688;2022-10-13T15:58:22;101131.66;;;17.79;59.83
75298;BME280;63896;45.990;18.688;2022-10-13T16:01:27;101128.94;;;17.62;60.50
75298;BME280;63896;45.990;18.688;2022-10-13T16:04:30;101125.63;;;17.43;61.00
75298;BME280;63896;45.990;18.688;2022-10-13T16:07:39;101133.97;;;17.30;61.80
75298;BME280;63896;45.990;18.688;2022-10-13T16:10:43;101132.41;;;17.18;61.97
75298;BME280;63896;45.990;18.688;2022-10-13T16:13:50;101128.94;;;17.05;62.65
75298;BME280;63896;45.990;18.688;2022-10-13T16:20:45;101121.47;;;16.67;64.61
75298;BME280;63896;45.990;18.688;2022-10-13T16:23:48;101124.28;;;16.61;64.64
75298;BME280;63896;45.990;18.688;2022-10-13T16:26:51;101114.84;;;16.47;65.46
75298;BME280;63896;45.990;18.688;2022-10-13T16:29:54;101123.47;;;16.37;66.43
75298;BME280;63896;45.990;18.688;2022-10-13T16:32:56;101122.06;;;16.23;66.13
75298;BME280;63896;45.990;18.688;2022-10-13T16:36:11;101121.94;;;16.06;68.02
75298;BME280;63896;45.990;18.688;2022-10-13T16:39:15;101120.66;;;15.97;69.14
75298;BME280;63896;45.990;18.688;2022-10-13T16:42:18;101128.09;;;15.84;68.98
75298;BME280;63896;45.990;18.688;2022-10-13T16:45:21;101124.34;;;15.73;68.88
75298;BME280;63896;45.990;18.688;2022-10-13T16:48:44;101126.88;;;15.68;69.65
75298;BME280;63896;45.990;18.688;2022-10-13T16:51:48;101127.00;;;15.61;71.58
75298;BME280;63896;45.990;18.688;2022-10-13T16:54:51;101123.69;;;15.48;72.37
75298;BME280;63896;45.990;18.688;2022-10-13T16:57:54;101130.88;;;15.47;72.79
75298;BME280;63896;45.990;18.688;2022-10-13T17:01:05;101127.34;;;15.35;73.01
75298;BME280;63896;45.990;18.688;2022-10-13T17:04:10;101134.66;;;15.28;73.03
75298;BME280;63896;45.990;18.688;2022-10-13T17:07:13;101126.81;;;15.15;73.14
75298;BME280;63896;45.990;18.688;2022-10-13T17:10:16;101127.34;;;15.05;74.71